createdAt,value
2017-09-18T00:00:13.959Z,86.40
2017-09-18T00:02:42.347Z,85.80
2017-09-18T00:05:10.012Z,85.80
2017-09-18T00:07:37.648Z,85.40
2017-09-18T00:10:05.275Z,85.50
2017-09-18T00:12:32.935Z,85.70
2017-09-18T00:15:00.575Z,86.10
2017-09-18T00:17:28.205Z,85.40
2017-09-18T00:19:55.863Z,85.40
2017-09-18T00:22:23.498Z,85.70
2017-09-18T00:24:51.118Z,85.20
2017-09-18T00:27:18.767Z,85.60
2017-09-18T00:29:47.155Z,85.90
2017-09-18T00:32:14.780Z,85.80
2017-09-18T00:34:43.196Z,86.10
2017-09-18T00:37:10.828Z,85.40
2017-09-18T00:39:38.462Z,86.10
2017-09-18T00:42:06.139Z,86.90
2017-09-18T00:44:33.768Z,86.90
2017-09-18T00:47:01.394Z,87.30
2017-09-18T00:49:29.066Z,87.20
2017-09-18T00:51:56.694Z,88.00
2017-09-18T00:54:24.314Z,87.90
2017-09-18T00:56:51.984Z,87.80
2017-09-18T00:59:19.611Z,87.80
2017-09-18T01:01:47.239Z,87.40
2017-09-18T01:04:14.891Z,87.60
2017-09-18T01:06:42.523Z,86.60
2017-09-18T01:09:10.204Z,86.70
2017-09-18T01:11:38.616Z,88.20
2017-09-18T01:14:06.247Z,88.10
2017-09-18T01:16:33.914Z,88.50
2017-09-18T01:19:01.572Z,88.60
2017-09-18T01:21:29.195Z,88.90
2017-09-18T01:23:56.814Z,89.00
2017-09-18T01:26:24.459Z,87.80
2017-09-18T01:28:52.863Z,85.90
2017-09-18T01:31:20.481Z,85.90
2017-09-18T01:33:48.132Z,87.00
2017-09-18T01:36:15.751Z,87.80
2017-09-18T01:38:44.136Z,87.70
2017-09-18T01:41:11.794Z,87.60
2017-09-18T01:43:39.417Z,88.00
2017-09-18T01:46:07.804Z,88.40
2017-09-18T01:48:35.458Z,88.50
2017-09-18T01:51:03.080Z,88.60
2017-09-18T01:53:30.706Z,87.60
2017-09-18T01:55:59.191Z,89.00
2017-09-18T01:58:26.804Z,89.00
2017-09-18T02:00:54.423Z,89.60
2017-09-18T02:03:22.071Z,88.80
2017-09-18T02:05:49.686Z,89.10
2017-09-18T02:08:17.304Z,89.30
2017-09-18T02:10:45.716Z,88.30
2017-09-18T02:13:13.327Z,88.30
2017-09-18T02:15:40.953Z,88.40
2017-09-18T02:18:08.614Z,87.70
2017-09-18T02:20:37.020Z,87.90
2017-09-18T02:23:04.642Z,87.80
2017-09-18T02:25:32.309Z,88.40
2017-09-18T02:27:59.934Z,87.90
2017-09-18T02:30:27.653Z,87.60
2017-09-18T02:32:55.299Z,88.40
2017-09-18T02:35:22.925Z,88.00
2017-09-18T02:37:50.548Z,88.30
2017-09-18T02:40:18.200Z,88.40
2017-09-18T02:42:45.826Z,88.70
2017-09-18T02:45:13.439Z,88.90
2017-09-18T02:47:41.866Z,88.20
2017-09-18T02:50:09.479Z,88.10
2017-09-18T02:52:37.105Z,87.80
2017-09-18T02:55:05.526Z,87.80
2017-09-18T02:57:33.149Z,87.80
2017-09-18T03:00:00.780Z,88.00
2017-09-18T03:02:28.443Z,88.00
2017-09-18T03:04:56.084Z,87.50
2017-09-18T03:07:23.717Z,87.30
2017-09-18T03:09:51.374Z,87.10
2017-09-18T03:12:18.990Z,87.40
2017-09-18T03:14:47.367Z,88.30
2017-09-18T03:17:15.018Z,88.20
2017-09-18T03:19:42.636Z,88.90
2017-09-18T03:22:11.029Z,88.50
2017-09-18T03:24:38.700Z,88.50
2017-09-18T03:27:06.315Z,88.60
2017-09-18T03:29:33.935Z,88.70
2017-09-18T03:32:01.583Z,87.70
2017-09-18T03:34:29.204Z,88.00
2017-09-18T03:36:56.867Z,87.60
2017-09-18T03:39:24.524Z,87.20
2017-09-18T03:41:53.074Z,87.10
2017-09-18T03:44:21.035Z,87.00
2017-09-18T03:46:48.680Z,86.90
2017-09-18T03:49:16.299Z,87.00
2017-09-18T03:51:43.977Z,87.20
2017-09-18T03:54:11.624Z,87.60
2017-09-18T03:56:39.243Z,88.00
2017-09-18T03:59:06.865Z,87.70
2017-09-18T04:01:34.515Z,87.40
2017-09-18T04:04:02.139Z,87.40
2017-09-18T04:06:29.856Z,87.50
2017-09-18T04:08:57.513Z,87.70
2017-09-18T04:11:25.907Z,88.10
2017-09-18T04:13:53.534Z,88.00
2017-09-18T04:16:21.191Z,88.30
2017-09-18T04:18:48.814Z,88.10
2017-09-18T04:21:16.434Z,87.70
2017-09-18T04:23:44.080Z,87.40
2017-09-18T04:26:11.700Z,87.70
2017-09-18T04:28:39.347Z,87.20
2017-09-18T04:31:06.995Z,87.00
2017-09-18T04:33:34.622Z,86.80
2017-09-18T04:36:02.231Z,87.60
2017-09-18T04:38:29.885Z,87.50
2017-09-18T04:40:58.272Z,88.00
2017-09-18T04:43:25.888Z,87.20
2017-09-18T04:45:53.548Z,87.40
2017-09-18T04:48:21.936Z,87.10
2017-09-18T04:50:49.556Z,86.90
2017-09-18T04:53:17.204Z,86.40
2017-09-18T04:55:45.594Z,87.30
2017-09-18T04:58:13.242Z,87.30
2017-09-18T05:00:40.903Z,87.30
2017-09-18T05:03:08.531Z,87.40
2017-09-18T05:05:36.157Z,87.50
2017-09-18T05:08:04.590Z,87.40
2017-09-18T05:10:32.212Z,87.40
2017-09-18T05:12:59.827Z,87.60
2017-09-18T05:15:27.475Z,87.40
2017-09-18T05:17:55.099Z,87.00
2017-09-18T05:20:23.632Z,87.90
2017-09-18T05:22:51.284Z,87.90
2017-09-18T05:25:18.904Z,88.00
2017-09-18T05:27:46.510Z,88.30
2017-09-18T05:30:14.945Z,89.10
2017-09-18T05:32:42.562Z,89.10
2017-09-18T05:35:10.180Z,89.50
2017-09-18T05:37:37.846Z,89.20
2017-09-18T05:40:05.463Z,89.00
2017-09-18T05:42:33.860Z,88.40
2017-09-18T05:45:01.510Z,88.40
2017-09-18T05:47:29.128Z,88.30
2017-09-18T05:49:56.758Z,88.00
2017-09-18T05:52:25.175Z,85.80
2017-09-18T05:54:52.839Z,85.80
2017-09-18T05:57:20.463Z,85.60
2017-09-18T05:59:48.135Z,86.50
2017-09-18T06:02:15.832Z,86.20
2017-09-18T06:04:43.472Z,86.70
2017-09-18T06:07:11.128Z,84.70
2017-09-18T06:09:38.747Z,85.40
2017-09-18T06:12:07.138Z,80.10
2017-09-18T06:14:34.788Z,80.10
2017-09-18T06:17:02.408Z,79.40
2017-09-18T06:19:30.030Z,75.80
2017-09-18T06:21:57.683Z,74.80
2017-09-18T06:24:25.311Z,73.90
2017-09-18T06:26:52.947Z,70.70
2017-09-18T06:29:20.600Z,69.10
2017-09-18T06:31:48.235Z,65.60
2017-09-18T06:34:15.881Z,62.30
2017-09-18T06:36:43.549Z,59.10
2017-09-18T06:39:11.175Z,53.20
2017-09-18T06:41:38.799Z,44.70
2017-09-18T06:44:06.458Z,41.80
2017-09-18T06:46:34.084Z,39.10
2017-09-18T06:49:01.724Z,40.20
2017-09-18T06:51:30.128Z,33.60
2017-09-18T06:53:57.732Z,33.50
2017-09-18T06:56:25.332Z,30.00
2017-09-18T06:58:52.972Z,31.50
2017-09-18T07:01:20.583Z,28.60
2017-09-18T07:03:48.951Z,27.80
2017-09-18T07:06:17.352Z,27.90
2017-09-18T07:08:45.127Z,27.80
2017-09-18T07:11:12.723Z,25.00
2017-09-18T07:13:40.356Z,26.00
2017-09-18T07:16:08.721Z,30.00
2017-09-18T07:18:36.323Z,29.90
2017-09-18T07:21:03.957Z,26.70
2017-09-18T07:23:31.556Z,24.70
2017-09-18T07:25:59.162Z,25.10
2017-09-18T07:28:26.797Z,24.80
2017-09-18T07:30:54.396Z,23.40
2017-09-18T07:33:22.764Z,19.80
2017-09-18T07:35:50.395Z,19.70
2017-09-18T07:38:18.755Z,18.00
2017-09-18T07:40:47.129Z,18.20
2017-09-18T07:43:15.534Z,19.70
2017-09-18T07:45:43.135Z,19.70
2017-09-18T07:48:11.501Z,18.30
2017-09-18T07:50:39.900Z,17.50
2017-09-18T07:53:07.495Z,17.50
2017-09-18T07:55:35.097Z,18.70
2017-09-18T07:58:02.734Z,18.70
2017-09-18T08:00:30.328Z,20.00
2017-09-18T08:02:57.931Z,22.70
2017-09-18T08:05:25.584Z,25.70
2017-09-18T08:07:53.190Z,28.60
2017-09-18T08:10:21.551Z,27.30
2017-09-18T08:12:49.951Z,27.40
2017-09-18T08:15:17.616Z,27.30
2017-09-18T08:17:45.219Z,26.50
2017-09-18T08:20:12.847Z,25.40
2017-09-18T08:22:41.221Z,24.20
2017-09-18T08:25:08.824Z,24.20
2017-09-18T08:27:36.464Z,21.50
2017-09-18T08:30:04.079Z,19.10
2017-09-18T08:32:31.675Z,14.90
2017-09-18T08:34:59.299Z,16.20
2017-09-18T08:37:26.915Z,18.30
2017-09-18T08:39:54.512Z,17.60
2017-09-18T08:42:22.144Z,19.20
2017-09-18T08:44:49.747Z,20.40
2017-09-18T08:47:17.352Z,21.80
2017-09-18T08:49:44.988Z,21.80
2017-09-18T08:52:12.587Z,22.20
2017-09-18T08:54:40.193Z,25.00
2017-09-18T08:57:07.821Z,27.60
2017-09-18T08:59:35.427Z,24.60
2017-09-18T09:02:03.025Z,27.80
2017-09-18T09:04:30.656Z,27.90
2017-09-18T09:06:58.288Z,27.70
2017-09-18T09:09:25.891Z,29.30
2017-09-18T09:11:53.524Z,29.40
2017-09-18T09:14:21.151Z,26.50
2017-09-18T09:16:49.543Z,26.40
2017-09-18T09:19:17.196Z,26.40
2017-09-18T09:21:44.808Z,27.40
2017-09-18T09:24:13.200Z,27.20
2017-09-18T09:26:40.858Z,26.90
2017-09-18T09:29:08.488Z,28.60
2017-09-18T09:31:36.121Z,27.10
2017-09-18T09:34:03.768Z,23.10
2017-09-18T09:36:32.141Z,23.80
2017-09-18T09:39:00.514Z,23.30
2017-09-18T09:41:28.911Z,23.90
2017-09-18T09:43:56.522Z,23.90
2017-09-18T09:46:24.127Z,26.30
2017-09-18T09:48:51.767Z,22.40
2017-09-18T09:51:19.364Z,19.30
2017-09-18T09:53:46.965Z,18.90
2017-09-18T09:56:14.612Z,18.40
2017-09-18T09:58:42.218Z,19.10
2017-09-18T10:01:09.819Z,17.50
2017-09-18T10:03:37.550Z,17.20
2017-09-18T10:06:05.149Z,17.80
2017-09-18T10:08:32.786Z,18.10
2017-09-18T10:11:01.192Z,19.10
2017-09-18T10:13:28.827Z,19.60
2017-09-18T10:15:56.432Z,20.60
2017-09-18T10:18:24.839Z,21.40
2017-09-18T10:20:52.445Z,21.30
2017-09-18T10:23:20.061Z,23.50
2017-09-18T10:25:47.697Z,22.70
2017-09-18T10:28:15.306Z,24.50
2017-09-18T10:30:42.921Z,24.00
2017-09-18T10:33:11.328Z,21.90
2017-09-18T10:35:38.938Z,21.80
2017-09-18T10:38:07.313Z,21.90
2017-09-18T10:40:34.952Z,21.80
2017-09-18T10:43:02.559Z,23.20
2017-09-18T10:45:30.176Z,22.10
2017-09-18T10:47:57.808Z,22.80
2017-09-18T10:50:25.408Z,22.40
2017-09-18T10:52:53.024Z,24.00
2017-09-18T10:55:20.653Z,22.60
2017-09-18T10:57:48.257Z,23.80
2017-09-18T11:00:15.869Z,24.60
2017-09-18T11:02:43.523Z,24.80
2017-09-18T11:05:11.127Z,24.20
2017-09-18T11:07:38.731Z,23.60
2017-09-18T11:10:06.355Z,23.70
2017-09-18T11:12:33.959Z,25.00
2017-09-18T11:15:01.561Z,23.70
2017-09-18T11:17:29.193Z,24.10
2017-09-18T11:19:56.825Z,26.90
2017-09-18T11:22:24.415Z,25.70
2017-09-18T11:24:52.834Z,29.20
2017-09-18T11:27:20.488Z,29.20
2017-09-18T11:29:48.120Z,28.50
2017-09-18T11:32:15.794Z,27.10
2017-09-18T11:34:43.444Z,30.60
2017-09-18T11:37:11.064Z,27.00
2017-09-18T11:39:38.704Z,27.30
2017-09-18T11:42:06.327Z,28.50
2017-09-18T11:44:33.947Z,23.80
2017-09-18T11:47:02.381Z,27.90
2017-09-18T11:49:30.007Z,27.80
2017-09-18T11:51:57.635Z,25.40
2017-09-18T11:54:25.288Z,28.00
2017-09-18T11:56:52.925Z,24.80
2017-09-18T11:59:20.552Z,20.70
2017-09-18T12:01:48.236Z,22.10
2017-09-18T12:04:15.867Z,20.00
2017-09-18T12:06:43.490Z,20.80
2017-09-18T12:09:11.899Z,23.50
2017-09-18T12:11:39.539Z,23.50
2017-09-18T12:14:07.167Z,20.70
2017-09-18T12:16:34.823Z,21.70
2017-09-18T12:19:02.434Z,21.20
2017-09-18T12:21:30.064Z,23.50
2017-09-18T12:23:57.703Z,21.50
2017-09-18T12:26:25.308Z,21.10
2017-09-18T12:28:52.911Z,19.30
2017-09-18T12:31:20.544Z,21.50
2017-09-18T12:33:48.151Z,19.20
2017-09-18T12:36:15.743Z,18.70
2017-09-18T12:38:43.384Z,19.40
2017-09-18T12:41:10.977Z,19.80
2017-09-18T12:43:38.585Z,19.80
2017-09-18T12:46:06.223Z,21.10
2017-09-18T12:48:33.887Z,17.80
2017-09-18T12:51:01.521Z,20.40
2017-09-18T12:53:29.178Z,21.40
2017-09-18T12:55:56.778Z,22.00
2017-09-18T12:58:24.377Z,23.70
2017-09-18T13:00:52.016Z,20.70
2017-09-18T13:03:19.620Z,19.90
2017-09-18T13:05:47.229Z,19.40
2017-09-18T13:08:15.626Z,20.80
2017-09-18T13:10:43.223Z,20.70
2017-09-18T13:13:10.821Z,19.20
2017-09-18T13:15:38.447Z,19.80
2017-09-18T13:18:06.057Z,20.20
2017-09-18T13:20:34.603Z,17.50
2017-09-18T13:23:02.245Z,19.90
2017-09-18T13:25:29.855Z,19.70
2017-09-18T13:27:57.456Z,17.10
2017-09-18T13:30:25.083Z,16.20
2017-09-18T13:32:52.686Z,13.20
2017-09-18T13:35:20.285Z,13.20
2017-09-18T13:37:47.914Z,13.80
2017-09-18T13:40:15.509Z,13.00
2017-09-18T13:42:43.714Z,13.20
2017-09-18T13:45:11.339Z,12.20
2017-09-18T13:47:38.947Z,11.30
2017-09-18T13:50:06.544Z,11.40
2017-09-18T13:52:34.176Z,11.80
2017-09-18T13:55:02.733Z,14.00
2017-09-18T13:57:30.327Z,14.00
2017-09-18T13:59:57.956Z,15.70
2017-09-18T14:02:25.556Z,17.30
2017-09-18T14:04:53.159Z,17.40
2017-09-18T14:07:20.790Z,17.60
2017-09-18T14:09:48.397Z,17.80
2017-09-18T14:12:17.496Z,17.50
2017-09-18T14:14:45.910Z,18.60
2017-09-18T14:17:13.508Z,18.60
2017-09-18T14:19:41.880Z,21.20
2017-09-18T14:22:09.515Z,21.30
2017-09-18T14:24:37.152Z,22.50
2017-09-18T14:27:05.540Z,28.30
2017-09-18T14:29:33.204Z,28.30
2017-09-18T14:32:00.837Z,29.80
2017-09-18T14:34:28.460Z,30.70
2017-09-18T14:36:56.132Z,31.90
2017-09-18T14:39:23.761Z,35.40
2017-09-18T14:41:51.467Z,38.60
2017-09-18T14:44:19.121Z,48.90
2017-09-18T14:46:46.792Z,47.50
2017-09-18T14:49:14.417Z,54.20
2017-09-18T14:51:42.847Z,64.90
2017-09-18T14:54:10.467Z,64.20
2017-09-18T14:56:38.089Z,61.50
2017-09-18T14:59:06.512Z,59.00
2017-09-18T15:01:34.137Z,59.10
2017-09-18T15:04:01.759Z,60.60
2017-09-18T15:06:29.428Z,64.80
2017-09-18T15:08:57.044Z,66.60
2017-09-18T15:11:25.420Z,68.90
2017-09-18T15:13:53.084Z,68.90
2017-09-18T15:16:20.720Z,72.60
2017-09-18T15:18:48.360Z,69.80
2017-09-18T15:21:16.015Z,72.00
2017-09-18T15:23:43.633Z,66.70
2017-09-18T15:26:11.261Z,62.20
2017-09-18T15:28:38.923Z,66.70
2017-09-18T15:31:06.548Z,62.50
2017-09-18T15:33:34.176Z,61.60
2017-09-18T15:36:01.832Z,65.30
2017-09-18T15:38:29.456Z,64.00
2017-09-18T15:40:57.079Z,66.00
2017-09-18T15:43:24.740Z,70.00
2017-09-18T15:45:52.362Z,65.20
2017-09-18T15:48:19.991Z,64.40
2017-09-18T15:50:48.415Z,59.80
2017-09-18T15:53:16.035Z,59.70
2017-09-18T15:55:43.661Z,62.10
2017-09-18T15:58:11.318Z,61.70
2017-09-18T16:00:38.948Z,59.10
2017-09-18T16:03:07.340Z,61.80
2017-09-18T16:05:35.000Z,61.80
2017-09-18T16:08:02.646Z,67.00
2017-09-18T16:10:30.272Z,64.90
2017-09-18T16:12:57.937Z,65.10
2017-09-18T16:15:25.556Z,66.10
2017-09-18T16:17:53.186Z,67.90
2017-09-18T16:20:21.610Z,64.40
2017-09-18T16:22:49.284Z,64.30
2017-09-18T16:25:16.916Z,67.80
2017-09-18T16:27:44.575Z,68.50
2017-09-18T16:30:12.997Z,66.90
2017-09-18T16:32:40.635Z,66.60
2017-09-18T16:35:08.298Z,64.10
2017-09-18T16:37:35.936Z,66.00
2017-09-18T16:40:03.558Z,62.20
2017-09-18T16:42:31.220Z,67.00
2017-09-18T16:44:58.848Z,64.80
2017-09-18T16:47:26.469Z,64.70
2017-09-18T16:49:54.891Z,65.00
2017-09-18T16:52:22.635Z,64.00
2017-09-18T16:54:50.272Z,65.80
2017-09-18T16:57:17.927Z,68.30
2017-09-18T16:59:45.551Z,66.90
2017-09-18T17:02:13.171Z,62.50
2017-09-18T17:04:40.852Z,61.20
2017-09-18T17:07:08.575Z,61.00
2017-09-18T17:09:36.970Z,64.80
2017-09-18T17:12:04.664Z,64.80
2017-09-18T17:14:32.293Z,60.90
2017-09-18T17:16:59.919Z,65.80
2017-09-18T17:19:27.578Z,67.00
2017-09-18T17:21:55.200Z,68.50
2017-09-18T17:24:23.549Z,70.20
2017-09-18T17:26:51.200Z,71.30
2017-09-18T17:29:18.823Z,74.80
2017-09-18T17:31:46.442Z,75.10
2017-09-18T17:34:14.098Z,79.00
2017-09-18T17:36:41.796Z,77.70
2017-09-18T17:39:09.427Z,78.00
2017-09-18T17:41:37.101Z,79.50
2017-09-18T17:44:04.732Z,82.10
2017-09-18T17:46:32.398Z,81.60
2017-09-18T17:49:00.057Z,83.40
2017-09-18T17:51:32.240Z,84.60
2017-09-18T17:54:00.665Z,84.90
2017-09-18T17:56:28.280Z,84.80
2017-09-18T17:58:56.776Z,85.40
2017-09-18T18:01:24.435Z,85.40
2017-09-18T18:03:52.330Z,85.40
2017-09-18T18:06:19.980Z,85.90
2017-09-18T18:08:48.404Z,86.10
2017-09-18T18:11:17.743Z,86.10
2017-09-18T18:13:45.432Z,85.80
2017-09-18T18:16:13.096Z,86.60
2017-09-18T18:18:40.724Z,86.50
2017-09-18T18:21:08.344Z,87.20
2017-09-18T18:23:36.008Z,87.50
2017-09-18T18:26:03.692Z,88.90
2017-09-18T18:28:31.321Z,89.10
2017-09-18T18:30:58.988Z,89.70
2017-09-18T18:33:27.385Z,89.60
2017-09-18T18:35:55.008Z,89.60
2017-09-18T18:38:23.433Z,89.60
2017-09-18T18:40:51.057Z,89.60
2017-09-18T18:43:18.676Z,89.40
2017-09-18T18:45:46.335Z,89.00
2017-09-18T18:48:13.972Z,88.90
2017-09-18T18:50:41.651Z,89.30
2017-09-18T18:53:09.311Z,89.50
2017-09-18T18:55:37.010Z,90.30
2017-09-18T18:58:05.404Z,90.10
2017-09-18T19:00:33.055Z,90.00
2017-09-18T19:03:00.687Z,89.00
2017-09-18T19:05:28.312Z,89.10
2017-09-18T19:07:56.735Z,88.70
2017-09-18T19:10:24.356Z,88.70
2017-09-18T19:12:51.983Z,88.50
2017-09-18T19:15:19.639Z,89.30
2017-09-18T19:17:47.258Z,89.80
2017-09-18T19:20:15.636Z,90.60
2017-09-18T19:22:44.923Z,90.50
2017-09-18T19:25:12.543Z,90.50
2017-09-18T19:27:40.925Z,90.10
2017-09-18T19:30:09.235Z,90.10
2017-09-18T19:32:36.857Z,90.50
2017-09-18T19:35:05.492Z,90.50
2017-09-18T19:37:34.985Z,91.70
2017-09-18T19:40:03.400Z,91.10
2017-09-18T19:42:31.022Z,91.10
2017-09-18T19:44:58.683Z,90.90
2017-09-18T19:47:26.311Z,90.90
2017-09-18T19:49:53.953Z,90.70
2017-09-18T19:52:21.659Z,90.20
2017-09-18T19:54:49.273Z,90.90
2017-09-18T19:57:17.164Z,91.30
2017-09-18T19:59:44.817Z,91.20
2017-09-18T20:02:14.596Z,91.30
2017-09-18T20:04:43.396Z,91.20
2017-09-18T20:07:11.973Z,90.40
2017-09-18T20:09:39.597Z,90.30
2017-09-18T20:12:08.007Z,91.10
2017-09-18T20:14:35.958Z,91.10
2017-09-18T20:17:03.589Z,91.20
2017-09-18T20:19:31.212Z,91.30
2017-09-18T20:21:58.877Z,91.40
2017-09-18T20:24:26.516Z,90.90
2017-09-18T20:26:54.914Z,90.80
2017-09-18T20:29:22.558Z,90.80
2017-09-18T20:31:50.179Z,90.80
2017-09-18T20:34:17.801Z,90.30
2017-09-18T20:36:45.447Z,90.10
2017-09-18T20:39:13.068Z,90.30
2017-09-18T20:41:40.700Z,90.10
2017-09-18T20:44:08.347Z,89.60
2017-09-18T20:46:35.964Z,89.70
2017-09-18T20:49:03.583Z,90.00
2017-09-18T20:51:32.005Z,90.70
2017-09-18T20:53:59.613Z,90.70
2017-09-18T20:56:27.230Z,90.90
2017-09-18T20:58:54.883Z,90.80
2017-09-18T21:01:22.504Z,91.40
2017-09-18T21:03:50.123Z,91.70
2017-09-18T21:06:17.775Z,91.30
2017-09-18T21:08:45.387Z,90.90
2017-09-18T21:11:13.009Z,90.50
2017-09-18T21:13:40.673Z,90.30
2017-09-18T21:16:09.080Z,90.80
2017-09-18T21:18:36.693Z,90.70
2017-09-18T21:21:04.356Z,90.80
2017-09-18T21:23:31.971Z,90.60
2017-09-18T21:25:59.602Z,90.50
2017-09-18T21:28:27.259Z,90.60
2017-09-18T21:30:55.642Z,91.00
2017-09-18T21:33:23.264Z,90.30
2017-09-18T21:35:50.943Z,90.90
2017-09-18T21:38:18.550Z,91.30
2017-09-18T21:40:46.188Z,91.70
2017-09-18T21:43:13.842Z,90.70
2017-09-18T21:45:41.464Z,90.60
2017-09-18T21:48:09.087Z,90.00
2017-09-18T21:50:36.740Z,90.60
2017-09-18T21:53:04.368Z,90.40
2017-09-18T21:55:31.994Z,91.20
2017-09-18T21:58:00.424Z,90.20
2017-09-18T22:00:28.066Z,90.10
2017-09-18T22:02:55.692Z,90.00
2017-09-18T22:05:23.339Z,89.50
2017-09-18T22:07:50.967Z,89.30
2017-09-18T22:10:18.592Z,89.20
2017-09-18T22:12:47.030Z,88.90
2017-09-18T22:15:14.659Z,88.70
2017-09-18T22:17:42.279Z,89.00
2017-09-18T22:20:09.935Z,88.90
2017-09-18T22:22:37.562Z,89.60
2017-09-18T22:25:05.179Z,89.90
2017-09-18T22:27:33.607Z,90.30
2017-09-18T22:30:01.262Z,90.20
2017-09-18T22:32:28.879Z,90.30
2017-09-18T22:34:56.536Z,90.20
2017-09-18T22:37:24.160Z,90.30
2017-09-18T22:39:51.785Z,90.60
2017-09-18T22:42:20.196Z,90.40
2017-09-18T22:44:47.831Z,90.30
2017-09-18T22:47:15.443Z,90.90
2017-09-18T22:49:43.859Z,90.40
2017-09-18T22:52:11.495Z,90.40
2017-09-18T22:54:39.115Z,90.40
2017-09-18T22:57:06.778Z,90.20
2017-09-18T22:59:34.408Z,90.40
2017-09-18T23:02:02.028Z,90.40
2017-09-18T23:04:30.444Z,89.70
2017-09-18T23:06:58.060Z,89.60
2017-09-18T23:09:25.685Z,89.20
2017-09-18T23:11:54.120Z,89.50
2017-09-18T23:14:21.747Z,89.50
2017-09-18T23:16:49.381Z,89.50
2017-09-18T23:19:17.032Z,89.80
2017-09-18T23:21:44.652Z,89.90
2017-09-18T23:24:12.282Z,89.70
2017-09-18T23:26:40.703Z,89.60
2017-09-18T23:29:08.330Z,89.50
2017-09-18T23:31:35.948Z,89.40
2017-09-18T23:34:04.366Z,89.10
2017-09-18T23:36:31.988Z,89.00
2017-09-18T23:38:59.612Z,89.40
2017-09-18T23:41:27.264Z,89.60
2017-09-18T23:43:54.888Z,90.00
2017-09-18T23:46:23.273Z,90.20
2017-09-18T23:48:50.925Z,90.20
2017-09-18T23:51:18.539Z,90.60
2017-09-18T23:53:46.155Z,90.00
2017-09-18T23:56:13.811Z,90.20
2017-09-18T23:58:41.435Z,89.20
